Time;durP1;ratioP1;P1;durP2;ratioP2;P2;SDS_P1;SDS_P2;PMS_P1;PMS_P2;Temp;Humidity;BMP_temperature;BMP_pressure;BME280_temperature;BME280_humidity;BME280_pressure;Samples;Min_cycle;Max_cycle;Signal;HPM_P1;HPM_P2
2022/10/21 00:01:17;;;;;;;3.70;2.97;;;;;;;;;;5071169;28;20293;-53
2022/10/21 00:03:44;;;;;;;3.70;3.10;;;;;;;;;;5071331;28;20301;-50
2022/10/21 00:06:10;;;;;;;5.70;4.10;;;;;;;;;;5071342;28;20249;-52
2022/10/21 00:08:37;;;;;;;4.67;2.90;;;;;;;;;;5066996;28;20230;-52
2022/10/21 00:11:05;;;;;;;6.00;4.50;;;;;;;;;;5071056;28;20198;-52
2022/10/21 00:13:33;;;;;;;3.57;3.20;;;;;;;;;;5071547;28;20292;-49
2022/10/21 00:16:02;;;;;;;3.33;2.83;;;;;;;;;;5071599;28;20281;-51
2022/10/21 00:18:30;;;;;;;9.37;6.07;;;;;;;;;;5062919;28;20236;-52
2022/10/21 00:20:56;;;;;;;4.90;3.60;;;;;;;;;;5071466;28;20281;-49
2022/10/21 00:23:23;;;;;;;3.53;2.80;;;;;;;;;;5070806;28;20301;-52
2022/10/21 00:25:49;;;;;;;3.70;3.27;;;;;;;;;;5069351;28;20304;-52
2022/10/21 00:28:16;;;;;;;2.57;2.37;;;;;;;;;;5070834;28;20281;-48
2022/10/21 00:30:43;;;;;;;3.63;2.93;;;;;;;;;;5071387;28;20738;-50
2022/10/21 00:33:11;;;;;;;2.83;2.53;;;;;;;;;;5070892;28;20256;-50
2022/10/21 00:35:38;;;;;;;3.13;2.83;;;;;;;;;;5069309;28;20289;-49
2022/10/21 00:38:04;;;;;;;3.37;2.80;;;;;;;;;;5070837;28;20221;-49
2022/10/21 00:40:31;;;;;;;3.83;3.13;;;;;;;;;;5070709;28;20478;-49
2022/10/21 00:42:58;;;;;;;3.00;2.70;;;;;;;;;;5066903;28;20304;-52
2022/10/21 00:45:28;;;;;;;3.10;2.70;;;;;;;;;;5070450;28;20305;-48
2022/10/21 00:47:59;;;;;;;3.23;2.80;;;;;;;;;;5070738;28;20290;-49
2022/10/21 00:50:36;;;;;;;3.30;2.80;;;;;;;;;;5070600;28;20221;-52
2022/10/21 00:53:12;;;;;;;2.97;2.50;;;;;;;;;;5069724;28;20226;-49
2022/10/21 00:55:42;;;;;;;2.83;2.53;;;;;;;;;;5069482;28;20284;-48
2022/10/21 00:58:09;;;;;;;3.47;2.90;;;;;;;;;;5070857;28;20190;-48
2022/10/21 01:00:35;;;;;;;3.10;2.80;;;;;;;;;;5069169;28;20320;-52
2022/10/21 01:03:02;;;;;;;3.27;2.60;;;;;;;;;;5070364;28;20225;-51
2022/10/21 01:05:30;;;;;;;3.20;2.90;;;;;;;;;;5065963;28;20320;-49
2022/10/21 01:07:56;;;;;;;2.83;2.50;;;;;;;;;;5066487;28;20329;-48
2022/10/21 01:10:22;;;;;;;3.17;2.70;;;;;;;;;;5068254;28;20198;-52
2022/10/21 01:13:08;;;;;;;5.70;4.10;;;;;;;;;;5068443;28;20396;-50
2022/10/21 01:15:51;;;;;;;3.50;3.20;;;;;;;;;;5067063;28;20293;-48
2022/10/21 01:18:17;;;;;;;4.53;3.67;;;;;;;;;;5068174;28;20692;-50
2022/10/21 01:21:02;;;;;;;3.50;2.90;;;;;;;;;;5070091;28;20290;-50
2022/10/21 01:23:50;;;;;;;3.10;2.70;;;;;;;;;;5068714;28;20308;-48
2022/10/21 01:26:54;;;;;;;3.07;2.77;;;;;;;;;;5069958;28;20342;-49
2022/10/21 01:29:58;;;;;;;2.93;2.53;;;;;;;;;;5069897;28;20228;-50
2022/10/21 01:32:42;;;;;;;3.10;2.50;;;;;;;;;;5069504;28;20317;-48
2022/10/21 01:35:20;;;;;;;3.87;3.00;;;;;;;;;;5068058;28;20646;-48
2022/10/21 01:38:07;;;;;;;3.60;2.90;;;;;;;;;;5068857;28;20289;-49
2022/10/21 01:40:56;;;;;;;3.33;2.90;;;;;;;;;;5066079;28;20275;-49
2022/10/21 01:43:27;;;;;;;2.67;2.47;;;;;;;;;;5067701;28;20301;-50
2022/10/21 01:45:59;;;;;;;2.80;2.43;;;;;;;;;;5069809;28;20329;-50
2022/10/21 01:48:35;;;;;;;2.90;2.60;;;;;;;;;;5068618;28;20198;-48
2022/10/21 01:51:04;;;;;;;3.03;2.73;;;;;;;;;;5060456;28;20280;-50
2022/10/21 01:53:39;;;;;;;3.17;2.50;;;;;;;;;;5065936;28;20309;-51
2022/10/21 01:56:07;;;;;;;3.37;2.60;;;;;;;;;;5068634;28;20281;-50
2022/10/21 01:58:36;;;;;;;3.63;2.97;;;;;;;;;;5068631;28;20555;-49
2022/10/21 02:01:03;;;;;;;3.13;2.83;;;;;;;;;;5067300;28;20290;-48
2022/10/21 02:03:35;;;;;;;3.03;2.73;;;;;;;;;;5068249;28;20268;-48
2022/10/21 02:06:01;;;;;;;3.10;2.47;;;;;;;;;;5068320;28;20590;-48
2022/10/21 02:08:27;;;;;;;3.13;2.80;;;;;;;;;;5065934;28;20431;-48
2022/10/21 02:10:56;;;;;;;5.50;3.40;;;;;;;;;;5100582;28;20194;-50
2022/10/21 02:13:33;;;;;;;4.03;3.43;;;;;;;;;;5076941;28;20305;-49
2022/10/21 02:16:01;;;;;;;2.97;2.67;;;;;;;;;;5076555;28;20228;-50
2022/10/21 02:18:28;;;;;;;2.90;2.60;;;;;;;;;;5073994;28;20193;-48
2022/10/21 02:20:57;;;;;;;2.60;2.40;;;;;;;;;;5077979;28;20284;-50
2022/10/21 02:23:35;;;;;;;4.33;2.70;;;;;;;;;;5074655;28;20660;-48
2022/10/21 02:26:01;;;;;;;3.40;2.63;;;;;;;;;;5079396;28;20671;-48
2022/10/21 02:28:27;;;;;;;3.50;2.87;;;;;;;;;;5078754;28;20653;-48
2022/10/21 02:31:18;;;;;;;3.27;2.70;;;;;;;;;;5081843;28;20576;-48
2022/10/21 02:33:50;;;;;;;2.90;2.60;;;;;;;;;;5078596;28;20200;-52
2022/10/21 02:36:36;;;;;;;2.93;2.60;;;;;;;;;;5079023;28;20277;-52
2022/10/21 02:39:12;;;;;;;4.37;3.87;;;;;;;;;;5075625;28;20229;-49
2022/10/21 02:41:39;;;;;;;3.07;2.53;;;;;;;;;;5101951;28;20676;-49
2022/10/21 02:44:06;;;;;;;3.17;2.80;;;;;;;;;;5075111;28;20281;-52
2022/10/21 02:46:38;;;;;;;3.97;2.80;;;;;;;;;;5084175;28;20300;-50
2022/10/21 02:49:05;;;;;;;3.00;2.60;;;;;;;;;;5075792;28;20281;-48
2022/10/21 02:51:31;;;;;;;3.10;2.50;;;;;;;;;;5083449;28;20378;-49
2022/10/21 02:53:57;;;;;;;3.60;2.77;;;;;;;;;;5076079;28;20285;-49
2022/10/21 02:56:25;;;;;;;3.00;2.50;;;;;;;;;;5082377;28;20676;-51
2022/10/21 02:58:52;;;;;;;3.40;2.57;;;;;;;;;;5081411;28;20288;-49
2022/10/21 03:01:18;;;;;;;3.60;2.87;;;;;;;;;;5074874;28;20293;-51
2022/10/21 03:03:45;;;;;;;3.40;2.70;;;;;;;;;;5081714;28;20646;-51
2022/10/21 03:06:11;;;;;;;3.33;2.60;;;;;;;;;;5079880;28;20587;-48
2022/10/21 03:08:37;;;;;;;3.00;2.70;;;;;;;;;;5074352;28;20282;-48
2022/10/21 03:11:04;;;;;;;3.87;2.57;;;;;;;;;;5079977;28;20201;-48
2022/10/21 03:13:30;;;;;;;2.83;2.53;;;;;;;;;;5082271;28;20256;-52
2022/10/21 03:15:57;;;;;;;3.70;2.43;;;;;;;;;;5080277;28;20194;-52
2022/10/21 03:18:23;;;;;;;3.93;2.83;;;;;;;;;;5080362;28;20639;-50
2022/10/21 03:20:50;;;;;;;2.40;2.17;;;;;;;;;;5080772;28;20404;-50
2022/10/21 03:23:17;;;;;;;3.07;2.50;;;;;;;;;;5079704;28;20567;-49
2022/10/21 03:25:44;;;;;;;2.90;2.60;;;;;;;;;;5078466;28;20588;-50
2022/10/21 03:28:10;;;;;;;3.67;2.60;;;;;;;;;;5079276;28;20289;-49
2022/10/21 03:30:37;;;;;;;2.63;2.43;;;;;;;;;;5075511;28;20748;-50
2022/10/21 03:33:03;;;;;;;3.23;2.53;;;;;;;;;;5078553;28;20301;-50
2022/10/21 03:35:29;;;;;;;2.93;2.63;;;;;;;;;;5077392;28;20285;-48
2022/10/21 03:37:56;;;;;;;2.87;2.40;;;;;;;;;;5079158;28;20202;-51
2022/10/21 03:40:29;;;;;;;2.60;2.40;;;;;;;;;;5081271;28;20214;-53
2022/10/21 03:42:58;;;;;;;2.80;2.33;;;;;;;;;;5075335;28;20272;-49
2022/10/21 03:45:25;;;;;;;2.93;2.57;;;;;;;;;;5080830;28;20301;-49
2022/10/21 03:47:51;;;;;;;2.43;2.23;;;;;;;;;;5079593;28;20276;-49
2022/10/21 03:50:18;;;;;;;2.80;2.33;;;;;;;;;;5078435;28;20636;-47
2022/10/21 03:52:51;;;;;;;3.13;2.57;;;;;;;;;;5079289;28;20214;-51
2022/10/21 03:55:19;;;;;;;3.13;2.50;;;;;;;;;;5079273;28;20222;-50
2022/10/21 03:57:46;;;;;;;2.90;2.60;;;;;;;;;;5079695;28;20296;-52
2022/10/21 04:00:13;;;;;;;3.17;2.60;;;;;;;;;;5074747;28;20639;-50
2022/10/21 04:02:39;;;;;;;3.23;2.50;;;;;;;;;;5080261;28;20209;-52
2022/10/21 04:05:06;;;;;;;2.53;2.33;;;;;;;;;;5077813;28;20202;-50
2022/10/21 04:07:33;;;;;;;3.00;2.63;;;;;;;;;;5077737;28;20248;-47
2022/10/21 04:09:59;;;;;;;2.90;2.60;;;;;;;;;;5077948;28;20278;-47
2022/10/21 04:12:25;;;;;;;2.50;2.23;;;;;;;;;;5078889;28;20641;-50
2022/10/21 04:14:51;;;;;;;2.50;2.30;;;;;;;;;;5076853;28;20284;-50
2022/10/21 04:17:18;;;;;;;2.60;2.40;;;;;;;;;;5077974;28;20281;-50
2022/10/21 04:19:44;;;;;;;2.43;2.23;;;;;;;;;;5079500;28;20194;-50
2022/10/21 04:22:11;;;;;;;2.90;2.40;;;;;;;;;;5076967;28;20309;-48
2022/10/21 04:24:37;;;;;;;3.70;3.00;;;;;;;;;;5077469;28;20612;-48
2022/10/21 04:27:03;;;;;;;4.27;3.57;;;;;;;;;;5076893;28;20303;-48
2022/10/21 04:29:29;;;;;;;5.13;3.87;;;;;;;;;;5078917;28;20289;-48
2022/10/21 04:31:56;;;;;;;5.10;4.03;;;;;;;;;;5074591;28;20224;-47
2022/10/21 04:34:22;;;;;;;5.03;3.03;;;;;;;;;;5077898;28;20298;-47
2022/10/21 04:36:48;;;;;;;4.50;3.40;;;;;;;;;;5078462;28;20217;-51
2022/10/21 04:39:15;;;;;;;3.87;3.40;;;;;;;;;;5076731;28;20285;-52
2022/10/21 04:41:41;;;;;;;4.93;3.43;;;;;;;;;;5077010;28;20252;-49
2022/10/21 04:44:07;;;;;;;5.33;3.40;;;;;;;;;;5076391;28;20233;-47
2022/10/21 04:46:34;;;;;;;5.17;3.93;;;;;;;;;;5078072;28;20305;-48
2022/10/21 04:49:00;;;;;;;4.63;3.53;;;;;;;;;;5076449;28;20301;-47
2022/10/21 04:51:27;;;;;;;3.57;2.90;;;;;;;;;;5074247;28;20654;-47
2022/10/21 04:53:53;;;;;;;5.60;3.60;;;;;;;;;;5077209;28;20201;-47
2022/10/21 04:56:19;;;;;;;3.50;3.20;;;;;;;;;;5076680;28;20222;-47
2022/10/21 04:58:46;;;;;;;3.73;3.33;;;;;;;;;;5077799;28;20676;-52
2022/10/21 05:01:12;;;;;;;3.43;2.93;;;;;;;;;;5072451;28;20284;-51
2022/10/21 05:03:38;;;;;;;3.67;3.17;;;;;;;;;;5078122;28;20311;-47
2022/10/21 05:06:05;;;;;;;4.13;3.40;;;;;;;;;;5075913;28;20305;-47
2022/10/21 05:08:31;;;;;;;5.13;4.23;;;;;;;;;;5076521;28;20795;-48
2022/10/21 05:10:59;;;;;;;6.70;4.20;;;;;;;;;;5074532;28;20425;-47
2022/10/21 05:13:26;;;;;;;5.00;3.70;;;;;;;;;;5076245;28;20261;-49
2022/10/21 05:15:57;;;;;;;5.23;3.50;;;;;;;;;;5076106;28;20281;-48
2022/10/21 05:18:24;;;;;;;4.40;3.60;;;;;;;;;;5073776;28;20281;-47
2022/10/21 05:20:51;;;;;;;4.07;3.20;;;;;;;;;;5076421;28;20284;-50
2022/10/21 05:23:18;;;;;;;3.37;2.87;;;;;;;;;;5070959;28;20772;-47
2022/10/21 05:25:45;;;;;;;3.10;2.60;;;;;;;;;;5075828;28;20216;-47
2022/10/21 05:28:12;;;;;;;3.20;2.50;;;;;;;;;;5074746;28;20285;-48
2022/10/21 05:30:38;;;;;;;3.97;3.03;;;;;;;;;;5077556;28;20293;-47
2022/10/21 05:33:04;;;;;;;6.53;4.23;;;;;;;;;;5074597;28;20245;-47
2022/10/21 05:35:31;;;;;;;4.43;3.33;;;;;;;;;;5075416;28;20285;-49
2022/10/21 05:37:57;;;;;;;3.50;2.63;;;;;;;;;;5075103;28;20278;-48
2022/10/21 05:40:24;;;;;;;4.17;3.10;;;;;;;;;;5075272;28;20228;-47
2022/10/21 05:42:50;;;;;;;3.60;2.60;;;;;;;;;;5075474;28;20300;-48
2022/10/21 05:45:16;;;;;;;3.33;2.93;;;;;;;;;;5070322;28;20281;-48
2022/10/21 05:47:43;;;;;;;2.77;2.43;;;;;;;;;;5076898;28;20276;-48
2022/10/21 05:50:11;;;;;;;2.80;2.13;;;;;;;;;;5074499;28;20297;-51
2022/10/21 05:52:38;;;;;;;2.77;2.17;;;;;;;;;;5073148;28;20243;-48
2022/10/21 05:55:06;;;;;;;3.60;2.60;;;;;;;;;;5074342;28;20607;-47
2022/10/21 05:57:33;;;;;;;3.20;2.90;;;;;;;;;;5077011;28;20297;-51
2022/10/21 06:00:00;;;;;;;3.87;3.07;;;;;;;;;;5078309;28;20190;-47
2022/10/21 06:02:26;;;;;;;3.60;2.80;;;;;;;;;;5073642;28;20676;-47
2022/10/21 06:04:53;;;;;;;3.00;2.60;;;;;;;;;;5079183;28;20284;-50
2022/10/21 06:07:19;;;;;;;3.77;2.73;;;;;;;;;;5078036;28;20308;-50
2022/10/21 06:09:45;;;;;;;4.77;3.60;;;;;;;;;;5075758;28;20277;-48
2022/10/21 06:12:12;;;;;;;4.47;3.23;;;;;;;;;;5074495;28;20308;-48
2022/10/21 06:14:38;;;;;;;8.57;5.53;;;;;;;;;;5079801;28;20229;-51
2022/10/21 06:17:04;;;;;;;3.80;3.10;;;;;;;;;;5077715;28;20277;-48
2022/10/21 06:19:31;;;;;;;6.40;4.17;;;;;;;;;;5074812;28;20730;-48
2022/10/21 06:21:57;;;;;;;5.13;4.03;;;;;;;;;;5077540;28;20250;-47
2022/10/21 06:24:24;;;;;;;3.40;2.80;;;;;;;;;;5077961;28;20237;-45
2022/10/21 06:26:50;;;;;;;4.13;3.40;;;;;;;;;;5078604;28;20304;-49
2022/10/21 06:29:17;;;;;;;2.70;2.20;;;;;;;;;;5075956;28;20699;-52
2022/10/21 06:31:44;;;;;;;2.90;2.57;;;;;;;;;;5078470;28;20740;-49
2022/10/21 06:34:10;;;;;;;3.47;2.50;;;;;;;;;;5077113;28;20885;-51
2022/10/21 06:36:37;;;;;;;2.37;2.10;;;;;;;;;;5078566;28;20281;-49
2022/10/21 06:39:04;;;;;;;2.60;2.40;;;;;;;;;;5076732;28;20198;-47
2022/10/21 06:41:30;;;;;;;2.53;2.33;;;;;;;;;;5077742;28;20761;-49
2022/10/21 06:43:57;;;;;;;2.83;2.50;;;;;;;;;;5077153;28;20280;-49
2022/10/21 06:46:24;;;;;;;2.57;2.33;;;;;;;;;;5071539;28;20250;-47
2022/10/21 06:48:50;;;;;;;2.83;2.33;;;;;;;;;;5078192;28;20635;-46
2022/10/21 06:51:21;;;;;;;2.40;2.20;;;;;;;;;;5076833;28;20241;-47
2022/10/21 06:53:56;;;;;;;3.20;2.23;;;;;;;;;;5071385;28;20292;-47
2022/10/21 06:56:23;;;;;;;5.33;3.70;;;;;;;;;;5073541;28;20284;-49
2022/10/21 06:58:49;;;;;;;6.03;4.00;;;;;;;;;;5074847;28;20276;-47
2022/10/21 07:01:25;;;;;;;4.97;3.70;;;;;;;;;;5075780;28;20198;-52
2022/10/21 07:04:07;;;;;;;4.90;3.63;;;;;;;;;;5070352;28;20650;-47
2022/10/21 07:06:34;;;;;;;3.73;3.10;;;;;;;;;;5077547;28;20224;-49
2022/10/21 07:09:01;;;;;;;3.70;2.83;;;;;;;;;;5075112;28;20549;-49
2022/10/21 07:11:27;;;;;;;3.07;2.63;;;;;;;;;;5073670;28;20566;-47
2022/10/21 07:13:53;;;;;;;3.43;2.80;;;;;;;;;;5076536;28;20734;-47
2022/10/21 07:16:25;;;;;;;3.37;2.57;;;;;;;;;;5075611;28;20266;-50
2022/10/21 07:18:51;;;;;;;3.17;2.47;;;;;;;;;;5076647;28;20240;-46
2022/10/21 07:21:20;;;;;;;3.10;2.60;;;;;;;;;;5071160;28;20733;-50
2022/10/21 07:23:48;;;;;;;3.07;2.37;;;;;;;;;;5075323;28;20619;-50
2022/10/21 07:26:14;;;;;;;2.60;2.30;;;;;;;;;;5075308;28;20765;-47
2022/10/21 07:28:42;;;;;;;2.50;2.20;;;;;;;;;;5076702;28;20285;-48
2022/10/21 07:31:08;;;;;;;2.27;2.03;;;;;;;;;;5073507;28;20285;-47
2022/10/21 07:33:34;;;;;;;3.17;2.53;;;;;;;;;;5076186;28;20772;-49
2022/10/21 07:36:13;;;;;;;3.00;2.67;;;;;;;;;;5075075;28;20218;-47
2022/10/21 07:38:42;;;;;;;2.40;2.20;;;;;;;;;;5075048;28;20229;-47
2022/10/21 07:41:13;;;;;;;3.73;2.47;;;;;;;;;;5074946;28;20293;-50
2022/10/21 07:43:39;;;;;;;2.77;2.27;;;;;;;;;;5075629;28;20304;-47
2022/10/21 07:46:05;;;;;;;3.00;2.50;;;;;;;;;;5072892;28;20226;-47
2022/10/21 07:48:32;;;;;;;3.50;2.63;;;;;;;;;;5075542;28;20239;-48
2022/10/21 07:51:06;;;;;;;2.73;2.37;;;;;;;;;;5074832;28;20336;-48
2022/10/21 07:53:33;;;;;;;2.53;2.23;;;;;;;;;;5074965;28;20228;-49
2022/10/21 07:56:01;;;;;;;2.40;2.20;;;;;;;;;;5070761;28;20229;-49
2022/10/21 07:58:29;;;;;;;2.43;2.20;;;;;;;;;;5074844;28;20230;-47
2022/10/21 08:01:00;;;;;;;2.40;2.20;;;;;;;;;;5074798;28;20289;-52
2022/10/21 08:03:27;;;;;;;2.80;2.23;;;;;;;;;;5073661;28;20260;-51
2022/10/21 08:05:54;;;;;;;2.90;2.60;;;;;;;;;;5072375;28;20229;-48
2022/10/21 08:08:20;;;;;;;3.23;2.50;;;;;;;;;;5073762;28;20289;-48
2022/10/21 08:10:48;;;;;;;2.97;2.60;;;;;;;;;;5074599;28;20741;-48
2022/10/21 08:13:16;;;;;;;2.50;2.20;;;;;;;;;;5073431;28;20218;-50
2022/10/21 08:15:48;;;;;;;2.93;2.23;;;;;;;;;;5069016;28;20259;-48
2022/10/21 08:18:15;;;;;;;2.63;2.40;;;;;;;;;;5073397;28;20732;-49
2022/10/21 08:20:42;;;;;;;2.60;2.40;;;;;;;;;;5073571;28;20302;-47
2022/10/21 08:23:14;;;;;;;2.70;2.47;;;;;;;;;;5071926;28;20325;-52
2022/10/21 08:25:55;;;;;;;2.90;2.40;;;;;;;;;;5072562;28;20284;-49
2022/10/21 08:28:22;;;;;;;3.03;2.10;;;;;;;;;;5073361;28;20272;-49
2022/10/21 08:30:49;;;;;;;2.40;2.10;;;;;;;;;;5071647;28;20284;-47
2022/10/21 08:33:16;;;;;;;3.37;2.10;;;;;;;;;;5066866;28;20300;-47
2022/10/21 08:35:42;;;;;;;2.73;2.20;;;;;;;;;;5073551;28;20201;-52
2022/10/21 08:38:10;;;;;;;2.17;1.97;;;;;;;;;;5072933;28;20379;-49
2022/10/21 08:40:46;;;;;;;3.43;2.53;;;;;;;;;;5068386;28;20587;-47
2022/10/21 08:43:28;;;;;;;2.93;2.30;;;;;;;;;;5072698;28;20213;-51
2022/10/21 08:46:01;;;;;;;2.37;2.00;;;;;;;;;;5072276;28;20283;-51
2022/10/21 08:48:36;;;;;;;3.03;2.63;;;;;;;;;;5053526;28;20304;-50
2022/10/21 08:51:05;;;;;;;2.63;2.40;;;;;;;;;;5064367;28;20506;-49
2022/10/21 08:53:38;;;;;;;3.27;2.47;;;;;;;;;;5071169;28;20330;-50
2022/10/21 08:56:10;;;;;;;2.40;2.13;;;;;;;;;;5070433;28;20301;-48
2022/10/21 08:58:46;;;;;;;3.17;2.40;;;;;;;;;;5063638;28;20206;-48
2022/10/21 09:01:15;;;;;;;3.53;2.70;;;;;;;;;;5070238;28;20198;-48
2022/10/21 09:03:53;;;;;;;3.40;2.90;;;;;;;;;;5072363;28;20311;-51
2022/10/21 09:06:44;;;;;;;2.43;2.23;;;;;;;;;;5067726;28;20289;-51
2022/10/21 09:09:23;;;;;;;2.90;2.33;;;;;;;;;;5070616;28;20646;-48
2022/10/21 09:12:27;;;;;;;3.67;2.97;;;;;;;;;;5070654;28;20239;-49
2022/10/21 09:15:03;;;;;;;4.27;3.33;;;;;;;;;;5065348;28;20310;-50
2022/10/21 09:17:59;;;;;;;3.37;2.93;;;;;;;;;;5070140;28;20281;-51
2022/10/21 09:20:39;;;;;;;4.70;3.17;;;;;;;;;;5070127;28;20725;-47
2022/10/21 09:23:27;;;;;;;3.83;3.40;;;;;;;;;;5068209;28;20222;-51
2022/10/21 09:25:59;;;;;;;5.23;3.60;;;;;;;;;;5069656;28;20197;-48
2022/10/21 09:28:29;;;;;;;3.43;2.60;;;;;;;;;;5071323;28;20657;-48
2022/10/21 09:30:59;;;;;;;3.00;2.70;;;;;;;;;;5064991;28;20236;-50
2022/10/21 09:33:27;;;;;;;3.67;2.87;;;;;;;;;;5068913;28;20301;-51
2022/10/21 09:36:07;;;;;;;5.03;3.60;;;;;;;;;;5069473;28;20716;-48
2022/10/21 09:38:44;;;;;;;6.10;3.70;;;;;;;;;;5069581;28;20226;-50
2022/10/21 09:41:27;;;;;;;5.67;3.80;;;;;;;;;;5068107;28;20483;-48
2022/10/21 09:43:55;;;;;;;5.93;3.97;;;;;;;;;;5053280;28;20194;-47
2022/10/21 09:46:21;;;;;;;5.27;3.60;;;;;;;;;;5070643;28;20284;-50
2022/10/21 09:48:50;;;;;;;3.50;3.10;;;;;;;;;;5068890;28;20658;-51
2022/10/21 09:51:38;;;;;;;4.20;3.10;;;;;;;;;;5067885;28;20206;-51
2022/10/21 09:54:08;;;;;;;5.77;4.07;;;;;;;;;;5070367;28;20190;-49
2022/10/21 09:56:38;;;;;;;3.93;2.70;;;;;;;;;;5069018;28;20765;-49
2022/10/21 09:59:08;;;;;;;4.30;2.97;;;;;;;;;;5066033;28;20843;-48
2022/10/21 10:01:35;;;;;;;3.50;2.60;;;;;;;;;;5067315;28;20230;-51
2022/10/21 10:04:12;;;;;;;2.60;2.30;;;;;;;;;;5068700;28;20277;-48
2022/10/21 10:06:41;;;;;;;2.60;2.30;;;;;;;;;;5070328;28;20282;-50
2022/10/21 10:09:14;;;;;;;2.30;2.10;;;;;;;;;;5065854;28;20224;-50
2022/10/21 10:12:23;;;;;;;2.67;2.10;;;;;;;;;;5069660;28;20257;-51
2022/10/21 10:14:49;;;;;;;2.23;2.03;;;;;;;;;;5056158;28;20765;-51
2022/10/21 10:17:34;;;;;;;2.27;2.00;;;;;;;;;;5062563;28;20730;-50
2022/10/21 10:20:03;;;;;;;2.50;2.20;;;;;;;;;;5061769;28;20285;-48
2022/10/21 10:22:30;;;;;;;3.23;2.00;;;;;;;;;;5069494;28;20271;-50
2022/10/21 10:25:17;;;;;;;2.37;2.13;;;;;;;;;;5069000;28;20204;-50
2022/10/21 10:27:53;;;;;;;2.53;2.13;;;;;;;;;;5067425;28;20226;-50
2022/10/21 10:30:22;;;;;;;2.60;2.33;;;;;;;;;;5069531;28;20525;-48
2022/10/21 10:32:52;;;;;;;2.47;2.20;;;;;;;;;;5069414;28;20246;-53
2022/10/21 10:35:21;;;;;;;2.43;2.23;;;;;;;;;;5068125;28;20206;-53
2022/10/21 10:37:48;;;;;;;2.50;2.30;;;;;;;;;;5069956;28;20218;-48
2022/10/21 10:40:23;;;;;;;2.50;2.30;;;;;;;;;;5069517;28;20230;-51
2022/10/21 10:42:54;;;;;;;3.00;2.20;;;;;;;;;;5064680;28;20301;-50
2022/10/21 10:45:21;;;;;;;2.30;2.10;;;;;;;;;;5076816;28;20276;-52
2022/10/21 10:47:53;;;;;;;4.90;2.90;;;;;;;;;;5093128;28;20213;-46
2022/10/21 10:50:46;;;;;;;2.67;2.20;;;;;;;;;;5091755;28;20648;-51
2022/10/21 10:53:22;;;;;;;3.27;2.57;;;;;;;;;;5079151;28;20297;-48
2022/10/21 10:56:02;;;;;;;4.27;2.37;;;;;;;;;;5092627;28;20203;-51
2022/10/21 10:58:31;;;;;;;3.77;2.37;;;;;;;;;;5092848;28;20280;-52
2022/10/21 11:00:59;;;;;;;4.30;2.50;;;;;;;;;;5082485;28;20586;-49
2022/10/21 11:03:31;;;;;;;3.00;2.30;;;;;;;;;;5091030;28;20256;-49
2022/10/21 11:06:06;;;;;;;3.73;2.60;;;;;;;;;;5091126;28;20280;-51
2022/10/21 11:08:40;;;;;;;3.03;2.20;;;;;;;;;;5090068;28;20790;-48
2022/10/21 11:11:18;;;;;;;2.83;2.30;;;;;;;;;;5076188;28;20192;-49
2022/10/21 11:13:44;;;;;;;2.27;2.03;;;;;;;;;;5091668;28;20221;-51
2022/10/21 11:16:39;;;;;;;2.70;2.23;;;;;;;;;;5092117;28;20197;-50
2022/10/21 11:19:32;;;;;;;2.57;2.20;;;;;;;;;;5084774;28;20247;-52
2022/10/21 11:22:15;;;;;;;2.60;2.20;;;;;;;;;;5089880;28;20217;-49
2022/10/21 11:25:04;;;;;;;3.00;1.80;;;;;;;;;;5090112;28;20198;-48
2022/10/21 11:27:53;;;;;;;2.20;2.00;;;;;;;;;;5076561;28;20714;-51
2022/10/21 11:30:21;;;;;;;2.47;2.00;;;;;;;;;;5079006;28;20247;-48
2022/10/21 11:33:26;;;;;;;2.47;2.03;;;;;;;;;;5090583;28;20307;-52
2022/10/21 11:36:00;;;;;;;1.87;1.77;;;;;;;;;;5091081;28;20272;-52
2022/10/21 11:38:49;;;;;;;2.40;2.10;;;;;;;;;;5083245;28;20631;-51
2022/10/21 11:41:29;;;;;;;2.20;2.00;;;;;;;;;;5090825;28;20284;-49
2022/10/21 11:44:11;;;;;;;3.00;1.93;;;;;;;;;;5090864;28;20293;-49
2022/10/21 11:46:57;;;;;;;1.77;1.60;;;;;;;;;;5082406;28;20646;-48
2022/10/21 11:49:26;;;;;;;2.90;2.20;;;;;;;;;;5079445;28;20285;-49
2022/10/21 11:52:14;;;;;;;1.80;1.70;;;;;;;;;;5090018;28;20249;-49
2022/10/21 11:55:14;;;;;;;2.93;1.70;;;;;;;;;;5087003;28;20284;-53
2022/10/21 11:58:31;;;;;;;2.42;1.85;;;;;;;;;;5088710;28;20619;-50
2022/10/21 12:01:09;;;;;;;2.20;1.93;;;;;;;;;;5089166;28;20241;-49
2022/10/21 12:04:04;;;;;;;2.20;1.90;;;;;;;;;;5081998;28;20325;-51
2022/10/21 12:06:37;;;;;;;1.70;1.60;;;;;;;;;;5082239;28;20251;-48
2022/10/21 12:09:18;;;;;;;1.70;1.60;;;;;;;;;;5088364;28;20636;-50
2022/10/21 12:11:50;;;;;;;2.08;1.88;;;;;;;;;;5083566;28;20256;-48
2022/10/21 12:14:22;;;;;;;2.10;1.90;;;;;;;;;;5090197;28;20277;-50
2022/10/21 12:16:57;;;;;;;2.33;2.00;;;;;;;;;;5089358;28;20232;-50
2022/10/21 12:19:24;;;;;;;1.67;1.50;;;;;;;;;;5087060;28;20225;-48
2022/10/21 12:21:51;;;;;;;2.50;1.85;;;;;;;;;;5087345;28;20256;-48
2022/10/21 12:24:33;;;;;;;2.30;2.00;;;;;;;;;;5088490;28;20276;-53
2022/10/21 12:27:30;;;;;;;2.30;1.90;;;;;;;;;;5087477;28;20274;-50
2022/10/21 12:30:21;;;;;;;2.07;1.87;;;;;;;;;;5086878;28;20281;-48
2022/10/21 12:33:10;;;;;;;2.38;1.90;;;;;;;;;;5088209;28;20712;-48
2022/10/21 12:35:48;;;;;;;2.17;1.90;;;;;;;;;;5089386;28;20283;-48
2022/10/21 12:38:42;;;;;;;2.85;1.98;;;;;;;;;;5070630;28;20232;-49
2022/10/21 12:41:41;;;;;;;2.00;1.80;;;;;;;;;;5075123;28;20296;-48
2022/10/21 12:44:23;;;;;;;2.10;1.90;;;;;;;;;;5073443;28;20190;-49
2022/10/21 12:47:01;;;;;;;2.53;1.77;;;;;;;;;;5077832;28;20235;-49
2022/10/21 12:49:31;;;;;;;1.80;1.70;;;;;;;;;;5088853;28;20341;-49
2022/10/21 12:52:06;;;;;;;2.13;1.80;;;;;;;;;;5087065;28;20229;-49
2022/10/21 12:54:41;;;;;;;2.13;1.83;;;;;;;;;;5088749;28;20229;-51
2022/10/21 12:57:10;;;;;;;2.23;1.97;;;;;;;;;;5078960;28;20272;-49
2022/10/21 12:59:41;;;;;;;2.10;1.85;;;;;;;;;;5088148;28;20749;-51
2022/10/21 13:02:21;;;;;;;2.20;1.80;;;;;;;;;;5086722;28;20268;-49
2022/10/21 13:04:49;;;;;;;2.35;2.00;;;;;;;;;;5076030;28;20289;-51
2022/10/21 13:07:16;;;;;;;2.00;1.75;;;;;;;;;;5087521;28;20237;-51
2022/10/21 13:09:49;;;;;;;2.30;1.80;;;;;;;;;;5086909;28;20645;-49
2022/10/21 13:12:22;;;;;;;2.05;1.75;;;;;;;;;;5075317;28;20300;-51
2022/10/21 13:14:49;;;;;;;2.40;2.00;;;;;;;;;;5083099;28;20220;-50
2022/10/21 13:17:21;;;;;;;2.00;1.80;;;;;;;;;;5087711;28;20638;-51
2022/10/21 13:19:52;;;;;;;2.00;1.80;;;;;;;;;;5086487;28;20251;-50
2022/10/21 13:22:36;;;;;;;2.25;2.05;;;;;;;;;;5084903;28;20304;-50
2022/10/21 13:25:18;;;;;;;1.75;1.50;;;;;;;;;;5087212;28;20201;-49
2022/10/21 13:27:47;;;;;;;2.20;2.00;;;;;;;;;;5086267;28;20303;-48
2022/10/21 13:30:31;;;;;;;1.90;1.70;;;;;;;;;;5093325;28;20332;-50
2022/10/21 13:33:00;;;;;;;1.85;1.67;;;;;;;;;;5083802;28;20337;-50
2022/10/21 13:35:47;;;;;;;1.77;1.67;;;;;;;;;;5086104;28;20571;-48
2022/10/21 13:38:26;;;;;;;2.40;1.92;;;;;;;;;;5087395;28;20221;-53
2022/10/21 13:41:02;;;;;;;2.10;1.88;;;;;;;;;;5084406;28;20215;-48
2022/10/21 13:43:35;;;;;;;1.98;1.70;;;;;;;;;;5085354;28;20391;-51
2022/10/21 13:46:05;;;;;;;2.00;1.70;;;;;;;;;;5083351;28;20761;-51
2022/10/21 13:48:39;;;;;;;1.92;1.80;;;;;;;;;;5082832;28;20300;-51
2022/10/21 13:51:14;;;;;;;2.00;1.80;;;;;;;;;;5086211;28;20291;-52
2022/10/21 13:53:44;;;;;;;2.20;1.70;;;;;;;;;;5084494;28;20266;-51
2022/10/21 13:56:21;;;;;;;2.42;1.90;;;;;;;;;;5082616;28;20221;-52
2022/10/21 13:58:48;;;;;;;2.63;1.77;;;;;;;;;;5081408;28;20280;-50
2022/10/21 14:01:18;;;;;;;1.77;1.67;;;;;;;;;;5086637;28;20278;-53
2022/10/21 14:03:46;;;;;;;2.00;1.80;;;;;;;;;;5083760;28;20213;-52
2022/10/21 14:06:29;;;;;;;2.07;1.77;;;;;;;;;;5074577;28;20250;-49
2022/10/21 14:08:58;;;;;;;2.60;1.95;;;;;;;;;;5083687;28;20241;-50
2022/10/21 14:11:41;;;;;;;2.17;1.98;;;;;;;;;;5085280;28;20650;-52
2022/10/21 14:14:08;;;;;;;1.67;1.58;;;;;;;;;;5081949;28;20284;-54
2022/10/21 14:16:38;;;;;;;2.30;1.88;;;;;;;;;;5086357;28;20201;-49
2022/10/21 14:19:08;;;;;;;1.95;1.75;;;;;;;;;;5086899;28;20694;-49
2022/10/21 14:21:36;;;;;;;1.90;1.70;;;;;;;;;;5088627;28;20697;-49
2022/10/21 14:24:03;;;;;;;1.95;1.63;;;;;;;;;;5084296;28;20288;-53
2022/10/21 14:26:30;;;;;;;1.85;1.75;;;;;;;;;;5089247;28;20338;-50
2022/10/21 14:28:59;;;;;;;1.75;1.60;;;;;;;;;;5086820;28;20570;-49
2022/10/21 14:31:25;;;;;;;1.92;1.73;;;;;;;;;;5088723;28;20275;-49
2022/10/21 14:33:52;;;;;;;2.63;1.98;;;;;;;;;;5085531;28;20289;-52
2022/10/21 14:36:24;;;;;;;1.90;1.75;;;;;;;;;;5089700;28;20239;-52
2022/10/21 14:38:59;;;;;;;2.05;1.85;;;;;;;;;;5086543;28;20278;-52
2022/10/21 14:41:44;;;;;;;1.73;1.63;;;;;;;;;;5080908;28;20296;-52
2022/10/21 14:44:18;;;;;;;2.00;1.80;;;;;;;;;;5089049;28;20197;-50
2022/10/21 14:46:47;;;;;;;1.80;1.52;;;;;;;;;;5086808;28;20293;-52
2022/10/21 14:49:21;;;;;;;1.95;1.63;;;;;;;;;;5070689;28;20300;-52
2022/10/21 14:51:48;;;;;;;2.00;1.80;;;;;;;;;;5069127;28;20304;-50
2022/10/21 14:54:33;;;;;;;2.08;1.80;;;;;;;;;;5081507;28;20225;-49
2022/10/21 14:57:00;;;;;;;1.50;1.40;;;;;;;;;;5078678;28;20285;-50
2022/10/21 14:59:38;;;;;;;1.67;1.55;;;;;;;;;;5087935;28;20289;-49
2022/10/21 15:02:25;;;;;;;2.00;1.80;;;;;;;;;;5068843;28;20772;-51
2022/10/21 15:04:55;;;;;;;1.80;1.70;;;;;;;;;;5081322;28;20198;-49
2022/10/21 15:07:31;;;;;;;2.00;1.67;;;;;;;;;;5088499;28;20292;-48
2022/10/21 15:10:00;;;;;;;1.92;1.50;;;;;;;;;;5086446;28;20304;-49
2022/10/21 15:12:43;;;;;;;2.25;1.67;;;;;;;;;;5080790;28;20210;-51